JUNEAU AML AK US NWS current weather conditions

sailwx.info

Wind from 120 at 9 knots gusting 13

Air temperature 1.2° C
Dewpoint -5.3° C

Last reported at 2020-Apr-07 17:02 UTC.
Time now 2020-Apr-07 17:37 UTC

Location: N 58°17' W 134°23'.
View on Google Maps.

See reports from other nearby stations

  
Tides and Currents Weather Stations Pressure Air Temp Water Temp Dewpoint Dewpoint Depression Visibility Wind Speed Wind Dir Waves Ship Positions
date/time (UTC)wind fromknots sea level pressurealtimeterstation pressurevisibilityair tempwater tempwave heightnotes
2020-Apr-07 17:02 120 9 gusting 13 1.2
2020-Apr-07 16:52 120 9 gusting 15 1.3
2020-Apr-07 16:42 120 9 gusting 14 1.4
2020-Apr-07 16:32 120 9 gusting 14 1.4
2020-Apr-07 16:22 130 7 gusting 14 1.3
2020-Apr-07 16:12 290 2 gusting 6 1.0
2020-Apr-07 16:02 300 2 gusting 6 0.9
2020-Apr-07 15:52 280 2 gusting 7 0.7
2020-Apr-07 15:42 310 1 gusting 4 0.7
2020-Apr-07 15:32 130 4 gusting 12 0.7
2020-Apr-07 15:22 150 6 gusting 14 0.7
2020-Apr-07 15:12 160 5 gusting 9 0.6
2020-Apr-07 15:02 190 9 gusting 12 0.5
2020-Apr-07 14:52 120 1 gusting 5 0.5
2020-Apr-07 14:42 210 1 gusting 4 0.6
2020-Apr-07 14:32 230 0 gusting 2 0.3
2020-Apr-07 14:22 190 5 gusting 9 0.4
2020-Apr-07 14:12 180 6 gusting 8 0.5
2020-Apr-07 14:02 170 7 gusting 9 0.5
2020-Apr-07 13:52 160 7 gusting 11 0.4
2020-Apr-07 13:42 140 8 gusting 12 0.3
2020-Apr-07 13:32 150 6 gusting 12 0.4
2020-Apr-07 13:22 160 6 gusting 9 0.4
2020-Apr-07 13:12 160 6 gusting 11 0.4
2020-Apr-07 13:02 130 4 gusting 6 0.3
2020-Apr-07 12:52 190 7 gusting 11 0.4
2020-Apr-07 12:42 230 6 gusting 8 0.6
2020-Apr-07 12:32 230 2 gusting 4 0.6
2020-Apr-07 12:22 330 1 gusting 2 0.3
2020-Apr-07 12:12 340 1 gusting 5 0.4
2020-Apr-07 12:02 260 4 gusting 7 0.7
2020-Apr-07 11:52 100 1 gusting 5 0.6
2020-Apr-07 11:42 080 1 gusting 2 0.6
2020-Apr-07 11:32 100 1 gusting 2 0.8
2020-Apr-07 11:22 210 5 gusting 12 0.9
2020-Apr-07 11:12 260 5 gusting 9 0.7
2020-Apr-07 11:02 090 2 gusting 6 0.7
2020-Apr-07 10:52 090 5 gusting 9 0.7
2020-Apr-07 10:42 150 2 gusting 7 0.9
2020-Apr-07 10:32 170 4 gusting 7 0.8
2020-Apr-07 10:22 150 6 gusting 11 0.9
2020-Apr-07 10:12 170 5 gusting 9 1.1
2020-Apr-07 10:02 190 5 gusting 7 1.1
2020-Apr-07 09:52 190 6 gusting 12 1.0
2020-Apr-07 09:42 190 6 gusting 13 1.2
2020-Apr-07 09:32 190 6 gusting 12 1.2
2020-Apr-07 09:22 210 5 gusting 11 1.1
2020-Apr-07 09:12 250 6 gusting 13 1.0
2020-Apr-07 09:02 220 6 gusting 12 1.1
2020-Apr-07 08:52 210 5 gusting 9 1.1
2020-Apr-07 08:42 150 1 gusting 6 0.8
2020-Apr-07 08:32 110 5 gusting 6 0.8
2020-Apr-07 08:22 180 6 gusting 12 1.0
2020-Apr-07 08:12 170 8 gusting 15 1.0
2020-Apr-07 08:02 140 4 gusting 12 1.2
2020-Apr-07 07:52 160 5 gusting 8 1.2
2020-Apr-07 07:42 160 4 gusting 7 1.2
2020-Apr-07 07:32 170 6 gusting 13 1.1
2020-Apr-07 07:22 170 4 gusting 9 1.0
2020-Apr-07 07:12 210 5 gusting 9 0.9
2020-Apr-07 07:02 210 7 gusting 13 0.9
2020-Apr-07 06:52 230 9 gusting 14 0.8
2020-Apr-07 06:42 240 6 gusting 12 1.0
2020-Apr-07 06:32 250 6 gusting 9 0.9
2020-Apr-07 06:22 200 9 gusting 19 1.1
2020-Apr-07 06:12 200 5 gusting 11 1.2
2020-Apr-07 06:02 200 7 gusting 13 1.2
2020-Apr-07 05:52 200 6 gusting 18 1.2
2020-Apr-07 05:42 200 9 gusting 14 1.1
2020-Apr-07 05:32 220 8 gusting 15 1.1
2020-Apr-07 05:22 210 9 gusting 15 1.2
2020-Apr-07 05:12 260 7 gusting 15 1.2
2020-Apr-07 05:02 250 9 gusting 17 1.4
2020-Apr-07 04:52 220 6 gusting 12 1.6
2020-Apr-07 04:42 200 6 gusting 9 1.5
2020-Apr-07 04:32 220 6 gusting 12 1.5
2020-Apr-07 04:22 190 9 gusting 14 1.4
2020-Apr-07 04:12 240 6 gusting 11 1.2
2020-Apr-07 04:02 290 6 gusting 11 1.0
2020-Apr-07 03:52 230 7 gusting 14 1.5
2020-Apr-07 03:42 190 9 gusting 20 1.6
2020-Apr-07 03:32 250 9 gusting 20 1.4
2020-Apr-07 03:22 270 2 gusting 11 1.6
2020-Apr-07 03:12 220 2 gusting 6 1.6
2020-Apr-07 03:02 220 9 gusting 17 1.6
2020-Apr-07 02:52 220 9 gusting 17 2.3
2020-Apr-07 02:42 220 6 gusting 9 2.3
2020-Apr-07 02:32 230 7 gusting 18 2.2
2020-Apr-07 02:22 230 9 gusting 17 2.4
2020-Apr-07 02:12 210 11 gusting 17 2.6
2020-Apr-07 02:02 260 12 gusting 20 2.5
2020-Apr-07 01:52 250 8 gusting 19 2.8
2020-Apr-07 01:42 250 12 gusting 21 2.7
2020-Apr-07 01:32 250 11 gusting 18 2.7
2020-Apr-07 01:22 270 12 gusting 22 2.8
2020-Apr-07 01:12 260 13 gusting 24 2.9
2020-Apr-07 01:02 260 14 gusting 25 3.2
2020-Apr-07 00:52 270 14 gusting 32 3.4
2020-Apr-07 00:42 250 11 gusting 20 3.7
2020-Apr-07 00:32 270 7 gusting 14 3.4
2020-Apr-07 00:22 260 13 gusting 24 2.9
2020-Apr-07 00:12 250 17 gusting 27 2.9
2020-Apr-06 23:52 270 13 gusting 26 3.2
2020-Apr-06 23:42 300 13 gusting 33 2.8
2020-Apr-06 23:32 270 17 gusting 40 2.9
2020-Apr-06 23:22 250 17 gusting 32 2.9
2020-Apr-06 23:12 240 15 gusting 34 2.3
2020-Apr-06 23:02 260 20 gusting 34 2.5
2020-Apr-06 22:52 260 19 gusting 29 3.4
2020-Apr-06 22:42 290 13 gusting 21 3.9
2020-Apr-06 22:32 280 13 gusting 28 3.9
2020-Apr-06 22:22 280 19 gusting 29 3.6
2020-Apr-06 22:12 270 20 gusting 34 3.5
2020-Apr-06 22:02 250 13 gusting 26 3.5
2020-Apr-06 21:52 270 18 gusting 33 3.3
2020-Apr-06 21:42 300 15 gusting 38 3.7
2020-Apr-06 21:32 270 15 gusting 27 5.2
2020-Apr-06 21:22 270 8 gusting 19 6.3
2020-Apr-06 21:12 230 8 gusting 13 5.6
2020-Apr-06 21:02 270 8 gusting 14 4.4
2020-Apr-06 20:52 290 6 gusting 12 4.5
2020-Apr-06 20:42 150 8 gusting 18 5.0
2020-Apr-06 20:32 270 4 gusting 7 3.8
2020-Apr-06 20:22 270 7 gusting 13 3.7
2020-Apr-06 20:12 120 7 gusting 13 3.6
2020-Apr-06 20:02 130 8 gusting 14 3.3
2020-Apr-06 19:52 130 8 gusting 13 3.0
2020-Apr-06 19:42 140 7 gusting 13 2.9
2020-Apr-06 19:32 150 7 gusting 12 3.1
2020-Apr-06 19:22 140 6 gusting 12 3.1
2020-Apr-06 19:12 130 5 gusting 11 2.9
2020-Apr-06 19:02 090 6 gusting 11 2.7
2020-Apr-06 18:52 110 6 gusting 13 3.0
2020-Apr-06 18:42 110 8 gusting 13 3.4
2020-Apr-06 18:32 130 4 gusting 12 3.7
2020-Apr-06 18:22 130 2 gusting 8 3.5
2020-Apr-06 18:12 090 6 gusting 12 3.3
2020-Apr-06 18:02 100 6 gusting 13 3.3
2020-Apr-06 17:52 080 7 gusting 13 3.3
2020-Apr-06 17:42 090 6 gusting 13 3.4
2020-Apr-06 17:32 110 7 gusting 13 3.6
2020-Apr-06 17:22 150 6 gusting 8 3.8
2020-Apr-06 17:12 170 6 gusting 15 3.7
2020-Apr-06 17:02 200 5 gusting 11 3.6
2020-Apr-06 16:52 220 5 gusting 11 3.4
2020-Apr-06 16:42 210 6 gusting 15 3.3
2020-Apr-06 16:32 120 4 gusting 7 3.2
2020-Apr-06 16:22 240 4 gusting 11 3.0
2020-Apr-06 16:12 260 4 gusting 8 3.0
2020-Apr-06 16:02 310 4 gusting 8 3.0
2020-Apr-06 15:52 180 6 gusting 13 2.9
2020-Apr-06 15:42 310 5 gusting 12 2.6
2020-Apr-06 15:32 250 11 gusting 20 2.4
2020-Apr-06 15:22 260 6 gusting 15 2.0
2020-Apr-06 15:12 240 6 gusting 19 1.8
2020-Apr-06 15:02 230 9 gusting 20 1.5
2020-Apr-06 14:52 190 6 gusting 19 1.0
2020-Apr-06 14:42 110 2 gusting 8 0.8
2020-Apr-06 14:32 040 4 gusting 6 0.8
2020-Apr-06 14:22 200 2 gusting 6 0.9
2020-Apr-06 14:12 240 6 gusting 14 1.1
2020-Apr-06 14:02 230 11 gusting 26 2.1
2020-Apr-06 13:52 250 13 gusting 29 2.8
2020-Apr-06 13:42 250 13 gusting 27 3.3
2020-Apr-06 13:32 130 8 gusting 14 3.6
2020-Apr-06 13:22 090 11 gusting 15 3.3
2020-Apr-06 13:12 110 13 gusting 19 3.3
2020-Apr-06 13:02 110 9 gusting 17 3.3
2020-Apr-06 12:52 120 11 gusting 18 3.3
2020-Apr-06 12:42 110 12 gusting 20 3.3
2020-Apr-06 12:32 110 13 gusting 19 3.3
2020-Apr-06 12:22 110 13 gusting 20 3.3
2020-Apr-06 12:12 100 12 gusting 18 3.3
2020-Apr-06 12:02 110 12 gusting 18 3.1
2020-Apr-06 11:52 120 14 gusting 22 3.1
2020-Apr-06 11:42 110 12 gusting 18 3.1
2020-Apr-06 11:32 100 12 gusting 20 3.0
2020-Apr-06 11:22 100 12 gusting 17 2.9
2020-Apr-06 11:12 090 13 gusting 20 2.6
2020-Apr-06 11:02 100 14 gusting 20 2.2
2020-Apr-06 10:52 100 12 gusting 19 2.0
2020-Apr-06 10:42 110 13 gusting 18 2.3
2020-Apr-06 10:32 120 14 gusting 19 2.6
2020-Apr-06 10:22 120 14 gusting 21 2.8
2020-Apr-06 10:12 110 13 gusting 20 2.9
2020-Apr-06 10:02 110 13 gusting 19 2.8
2020-Apr-06 09:52 110 13 gusting 19 2.9
2020-Apr-06 09:42 120 13 gusting 18 3.0
2020-Apr-06 09:32 120 12 gusting 19 3.0
2020-Apr-06 09:22 110 9 gusting 13 2.9
2020-Apr-06 09:12 100 11 gusting 15 2.8
2020-Apr-06 09:02 110 11 gusting 19 2.8
2020-Apr-06 08:52 120 13 gusting 15 2.8
2020-Apr-06 08:42 130 12 gusting 17 2.8
2020-Apr-06 08:32 130 9 gusting 14 2.8
2020-Apr-06 08:22 120 11 gusting 15 2.8
2020-Apr-06 08:12 120 11 gusting 19 2.7
2020-Apr-06 08:02 120 11 gusting 15 2.7
2020-Apr-06 07:52 130 12 gusting 15 2.6
2020-Apr-06 07:42 120 11 gusting 17 2.7
2020-Apr-06 07:32 120 12 gusting 18 2.8
2020-Apr-06 07:22 130 9 gusting 14 3.0
2020-Apr-06 07:12 120 9 gusting 14 3.0
2020-Apr-06 07:02 120 9 gusting 18 3.2
2020-Apr-06 06:52 110 9 gusting 15 3.1
2020-Apr-06 06:42 110 8 gusting 14 3.2
2020-Apr-06 06:32 100 9 gusting 14 3.1
2020-Apr-06 06:22 110 11 gusting 20 3.1
2020-Apr-06 06:12 110 11 gusting 15 3.1
2020-Apr-06 06:02 110 11 gusting 18 3.2
2020-Apr-06 05:52 110 12 gusting 20 3.2
2020-Apr-06 05:42 120 12 gusting 15 3.3
2020-Apr-06 05:32 140 8 gusting 15 3.4
2020-Apr-06 05:22 140 6 gusting 11 3.4
2020-Apr-06 05:12 150 6 gusting 12 3.3
2020-Apr-06 05:02 160 6 gusting 9 3.3
2020-Apr-06 04:52 160 7 gusting 12 3.3
2020-Apr-06 04:42 160 8 gusting 12 3.3
2020-Apr-06 04:32 160 6 gusting 12 3.4
2020-Apr-06 04:22 160 6 gusting 11 3.5
2020-Apr-06 04:12 150 7 gusting 12 3.5
2020-Apr-06 04:02 150 7 gusting 12 3.5
2020-Apr-06 03:52 150 7 gusting 13 3.5
2020-Apr-06 03:42 140 6 gusting 11 3.6
2020-Apr-06 03:32 150 6 gusting 11 3.7
2020-Apr-06 03:22 150 7 gusting 13 3.8
2020-Apr-06 03:12 150 7 gusting 13 3.8
2020-Apr-06 03:02 150 9 gusting 14 3.9
2020-Apr-06 02:52 150 6 gusting 11 3.9
2020-Apr-06 02:42 150 6 gusting 12 3.9
2020-Apr-06 02:32 150 7 gusting 13 4.0
2020-Apr-06 02:22 150 7 gusting 12 3.8
2020-Apr-06 02:12 140 9 gusting 13 3.6
2020-Apr-06 02:02 130 11 gusting 13 3.6
2020-Apr-06 01:52 130 12 gusting 13 3.5
2020-Apr-06 01:42 130 12 gusting 13 3.6
2020-Apr-06 01:32 130 11 gusting 13 3.7
2020-Apr-06 01:22 130 11 gusting 14 3.8
2020-Apr-06 01:12 130 12 gusting 17 3.6
2020-Apr-06 01:02 130 13 gusting 18 3.6
2020-Apr-06 00:52 120 13 gusting 19 3.5
2020-Apr-06 00:42 120 13 gusting 18 3.5
2020-Apr-06 00:32 120 14 gusting 18 3.9
2020-Apr-06 00:22 130 13 gusting 15 4.1
2020-Apr-06 00:12 140 8 gusting 12 4.2
2020-Apr-05 23:52 130 8 gusting 11 4.4
2020-Apr-05 23:42 140 7 gusting 11 4.5
2020-Apr-05 23:32 130 8 gusting 11 4.3
2020-Apr-05 23:22 130 8 gusting 12 4.4
2020-Apr-05 23:12 150 6 gusting 13 4.3
2020-Apr-05 23:02 130 12 gusting 14 3.7
2020-Apr-05 22:52 120 13 gusting 17 3.5
2020-Apr-05 22:42 120 14 gusting 17 3.5
2020-Apr-05 22:32 120 15 gusting 19 3.4
2020-Apr-05 22:22 120 15 gusting 18 3.2
2020-Apr-05 22:12 120 17 gusting 19 3.1
2020-Apr-05 22:02 120 15 gusting 19 3.0
2020-Apr-05 21:52 120 15 gusting 18 3.2
2020-Apr-05 21:42 120 14 gusting 18 3.0
2020-Apr-05 21:32 130 13 gusting 19 2.8
2020-Apr-05 21:22 130 14 gusting 19 2.8
2020-Apr-05 21:12 130 13 gusting 18 3.1
2020-Apr-05 21:02 130 13 gusting 20 3.0
2020-Apr-05 20:52 130 13 gusting 18 2.9
2020-Apr-05 20:42 120 15 gusting 19 2.8
2020-Apr-05 20:32 120 17 gusting 20 2.8
2020-Apr-05 20:22 120 15 gusting 19 2.8
2020-Apr-05 20:12 130 14 gusting 19 2.8
2020-Apr-05 20:02 130 13 gusting 18 2.6
2020-Apr-05 19:52 130 13 gusting 17 2.5
2020-Apr-05 19:42 130 13 gusting 19 2.4
2020-Apr-05 19:32 130 13 gusting 17 2.2
2020-Apr-05 19:22 130 13 gusting 17 2.0
2020-Apr-05 19:12 120 15 gusting 18 1.8
2020-Apr-05 19:02 120 13 gusting 17 1.9
2020-Apr-05 18:52 120 13 gusting 14 1.7
2020-Apr-05 18:42 130 13 gusting 14 1.6
2020-Apr-05 18:32 120 12 gusting 14 1.7
2020-Apr-05 18:22 120 7 gusting 12 1.6
2020-Apr-05 18:12 130 9 gusting 13 1.4
2020-Apr-05 18:02 140 8 gusting 13 1.2
2020-Apr-05 17:52 140 8 gusting 13 1.2
2020-Apr-05 17:42 140 6 gusting 9 1.6
2020-Apr-05 17:32 150 5 gusting 7 1.6
2020-Apr-05 17:22 140 6 gusting 6 1.4
2020-Apr-05 17:12 140 4 gusting 6 1.9
2020-Apr-05 17:02 150 2 gusting 5 1.8